메인 페이지
METAR-TAF:

METAR-TAF

공항 :

다마스쿠스 국제공항

다마스쿠스, 시리아

위도: 33-25N, 경도: 036-31E, 고도: 608m

현재 날씨관측

예보는 45분 전, 14:00시(UTC)에 발표되었습니다.
서남서18kt
온도 32°C
습도 15%
기압 1010 hPa
시정 10km 이상
고도 3000ft 상공 구름 보통

METAR: OSDI 251400Z 24018KT 9999 SCT030 32/02 Q1010

시각: 17:45 (14:45 UTC)

예보

예보는 4 시간 45분 전, 10:00시(UTC)에 발표되었습니다.
예보 대상 시간: 25일 12시부터 26일 18시까지 (UTC)
남서10kt
시정 10km 이상
고도 3000ft 상공 구름 조금
일시적
25일 12시부터 25일 18시까지 (UTC)
10kt, 순간 최대 풍속 20kt
시정: 8000m
고도 3000ft 상공 구름 조금
고도 10000ft 상공 구름 보통

TAF: OSDI 251000Z 2512/2618 22010KT 9999 FEW030 TEMPO 2512/2518 28010G20KT 8000 FEW030 SCT100

4,000개 이상의 공항 관측 자료 및 예보 (METAR 및 TAF 보고).

지도상에서 검색 가능한 기상관측소가 노란 점과 빨간 점으로 표시되어 있습니다.

기상관측소 명을 보려면 표시 위로 마우스를 이동하세요.

날씨 관측과 예보를 보려면 클릭하세요.

지도 변경 : 확대하려면 엑스 표시가 있는 녹색 버튼, 축소하려면 빼기 표시가 있는 녹색 버튼, 다음 페이지의 지도를 보려면 녹색 화살표를 클릭하세요.


METAR-TAF: